sensor_id;sensor_type;location;lat;lon;timestamp;P1;durP1;ratioP1;P2;durP2;ratioP2
10727;SDS011;5415;59.322;18.246;2022-07-03T00:01:58;3.50;;;2.80;;
10727;SDS011;5415;59.322;18.246;2022-07-03T00:04:27;4.70;;;2.90;;
10727;SDS011;5415;59.322;18.246;2022-07-03T00:06:54;3.53;;;2.77;;
10727;SDS011;5415;59.322;18.246;2022-07-03T00:09:22;9.27;;;2.87;;
10727;SDS011;5415;59.322;18.246;2022-07-03T00:11:49;3.47;;;2.67;;
10727;SDS011;5415;59.322;18.246;2022-07-03T00:14:17;2.60;;;2.40;;
10727;SDS011;5415;59.322;18.246;2022-07-03T00:16:44;2.60;;;2.40;;
10727;SDS011;5415;59.322;18.246;2022-07-03T00:19:11;2.70;;;2.50;;
10727;SDS011;5415;59.322;18.246;2022-07-03T00:21:43;2.80;;;2.60;;
10727;SDS011;5415;59.322;18.246;2022-07-03T00:24:16;4.80;;;2.93;;
10727;SDS011;5415;59.322;18.246;2022-07-03T00:26:48;4.00;;;2.50;;
10727;SDS011;5415;59.322;18.246;2022-07-03T00:29:19;7.03;;;2.80;;
10727;SDS011;5415;59.322;18.246;2022-07-03T00:31:48;2.77;;;2.57;;
10727;SDS011;5415;59.322;18.246;2022-07-03T00:34:16;4.13;;;2.73;;
10727;SDS011;5415;59.322;18.246;2022-07-03T00:36:47;3.93;;;2.80;;
10727;SDS011;5415;59.322;18.246;2022-07-03T00:39:16;3.00;;;2.67;;
10727;SDS011;5415;59.322;18.246;2022-07-03T00:41:43;4.43;;;3.10;;
10727;SDS011;5415;59.322;18.246;2022-07-03T00:44:12;3.80;;;2.80;;
10727;SDS011;5415;59.322;18.246;2022-07-03T00:46:41;5.13;;;2.77;;
10727;SDS011;5415;59.322;18.246;2022-07-03T00:49:12;3.43;;;2.60;;
10727;SDS011;5415;59.322;18.246;2022-07-03T00:51:54;4.23;;;2.90;;
10727;SDS011;5415;59.322;18.246;2022-07-03T00:54:23;3.53;;;2.73;;
10727;SDS011;5415;59.322;18.246;2022-07-03T00:56:51;5.43;;;3.17;;
10727;SDS011;5415;59.322;18.246;2022-07-03T00:59:19;3.23;;;2.90;;
10727;SDS011;5415;59.322;18.246;2022-07-03T01:01:47;3.57;;;2.90;;
10727;SDS011;5415;59.322;18.246;2022-07-03T01:04:21;6.00;;;3.13;;
10727;SDS011;5415;59.322;18.246;2022-07-03T01:06:51;3.83;;;3.10;;
10727;SDS011;5415;59.322;18.246;2022-07-03T01:09:23;3.93;;;2.90;;
10727;SDS011;5415;59.322;18.246;2022-07-03T01:11:55;3.20;;;2.90;;
10727;SDS011;5415;59.322;18.246;2022-07-03T01:14:27;4.23;;;3.33;;
10727;SDS011;5415;59.322;18.246;2022-07-03T01:16:58;5.93;;;3.43;;
10727;SDS011;5415;59.322;18.246;2022-07-03T01:19:29;3.33;;;3.00;;
10727;SDS011;5415;59.322;18.246;2022-07-03T01:22:02;5.00;;;3.10;;
10727;SDS011;5415;59.322;18.246;2022-07-03T01:27:13;3.03;;;2.60;;
10727;SDS011;5415;59.322;18.246;2022-07-03T01:29:45;3.30;;;2.80;;
10727;SDS011;5415;59.322;18.246;2022-07-03T01:32:15;5.53;;;3.00;;
10727;SDS011;5415;59.322;18.246;2022-07-03T01:34:43;3.67;;;3.00;;
10727;SDS011;5415;59.322;18.246;2022-07-03T01:37:11;4.43;;;3.00;;
10727;SDS011;5415;59.322;18.246;2022-07-03T01:39:41;3.93;;;2.93;;
10727;SDS011;5415;59.322;18.246;2022-07-03T01:42:13;3.47;;;3.17;;
10727;SDS011;5415;59.322;18.246;2022-07-03T01:44:41;4.40;;;3.30;;
10727;SDS011;5415;59.322;18.246;2022-07-03T01:47:10;3.17;;;2.97;;
10727;SDS011;5415;59.322;18.246;2022-07-03T01:49:37;4.57;;;3.00;;
10727;SDS011;5415;59.322;18.246;2022-07-03T01:52:06;4.57;;;3.10;;
10727;SDS011;5415;59.322;18.246;2022-07-03T01:54:34;5.60;;;3.00;;
10727;SDS011;5415;59.322;18.246;2022-07-03T01:57:02;3.43;;;3.03;;
10727;SDS011;5415;59.322;18.246;2022-07-03T01:59:34;3.40;;;3.10;;
10727;SDS011;5415;59.322;18.246;2022-07-03T02:02:04;3.93;;;3.17;;
10727;SDS011;5415;59.322;18.246;2022-07-03T02:04:39;4.20;;;3.10;;
10727;SDS011;5415;59.322;18.246;2022-07-03T02:07:12;3.30;;;3.00;;
10727;SDS011;5415;59.322;18.246;2022-07-03T02:09:44;3.70;;;3.40;;
10727;SDS011;5415;59.322;18.246;2022-07-03T02:12:12;4.50;;;3.37;;
10727;SDS011;5415;59.322;18.246;2022-07-03T02:14:44;4.50;;;3.30;;
10727;SDS011;5415;59.322;18.246;2022-07-03T02:17:15;5.40;;;3.60;;
10727;SDS011;5415;59.322;18.246;2022-07-03T02:19:43;4.13;;;3.43;;
10727;SDS011;5415;59.322;18.246;2022-07-03T02:22:14;3.53;;;3.23;;
10727;SDS011;5415;59.322;18.246;2022-07-03T02:24:44;3.70;;;3.40;;
10727;SDS011;5415;59.322;18.246;2022-07-03T02:27:13;4.50;;;3.30;;
10727;SDS011;5415;59.322;18.246;2022-07-03T02:29:46;3.63;;;3.00;;
10727;SDS011;5415;59.322;18.246;2022-07-03T02:32:20;3.70;;;3.10;;
10727;SDS011;5415;59.322;18.246;2022-07-03T02:34:49;3.93;;;3.63;;
10727;SDS011;5415;59.322;18.246;2022-07-03T02:37:19;6.30;;;3.43;;
10727;SDS011;5415;59.322;18.246;2022-07-03T02:39:50;7.30;;;3.90;;
10727;SDS011;5415;59.322;18.246;2022-07-03T02:42:21;4.00;;;3.57;;
10727;SDS011;5415;59.322;18.246;2022-07-03T02:44:52;4.53;;;3.93;;
10727;SDS011;5415;59.322;18.246;2022-07-03T02:47:24;3.87;;;3.53;;
10727;SDS011;5415;59.322;18.246;2022-07-03T02:49:55;4.30;;;3.30;;
10727;SDS011;5415;59.322;18.246;2022-07-03T02:52:28;4.47;;;3.70;;
10727;SDS011;5415;59.322;18.246;2022-07-03T02:54:59;3.80;;;3.50;;
10727;SDS011;5415;59.322;18.246;2022-07-03T02:57:27;4.43;;;3.80;;
10727;SDS011;5415;59.322;18.246;2022-07-03T03:00:05;4.80;;;4.20;;
10727;SDS011;5415;59.322;18.246;2022-07-03T03:02:54;4.07;;;3.33;;
10727;SDS011;5415;59.322;18.246;2022-07-03T03:05:27;3.93;;;3.63;;
10727;SDS011;5415;59.322;18.246;2022-07-03T03:08:05;4.17;;;3.83;;
10727;SDS011;5415;59.322;18.246;2022-07-03T03:10:35;9.60;;;4.93;;
10727;SDS011;5415;59.322;18.246;2022-07-03T03:13:04;6.43;;;5.00;;
10727;SDS011;5415;59.322;18.246;2022-07-03T03:15:33;4.67;;;4.33;;
10727;SDS011;5415;59.322;18.246;2022-07-03T03:18:02;5.80;;;4.30;;
10727;SDS011;5415;59.322;18.246;2022-07-03T03:20:30;8.10;;;4.00;;
10727;SDS011;5415;59.322;18.246;2022-07-03T03:22:59;5.63;;;3.90;;
10727;SDS011;5415;59.322;18.246;2022-07-03T03:25:29;4.40;;;3.70;;
10727;SDS011;5415;59.322;18.246;2022-07-03T03:27:57;5.10;;;4.17;;
10727;SDS011;5415;59.322;18.246;2022-07-03T03:30:27;7.03;;;4.27;;
10727;SDS011;5415;59.322;18.246;2022-07-03T03:32:56;6.27;;;4.00;;
10727;SDS011;5415;59.322;18.246;2022-07-03T03:35:23;4.57;;;3.57;;
10727;SDS011;5415;59.322;18.246;2022-07-03T03:37:51;4.43;;;3.80;;
10727;SDS011;5415;59.322;18.246;2022-07-03T03:40:19;4.00;;;3.60;;
10727;SDS011;5415;59.322;18.246;2022-07-03T03:42:47;5.13;;;4.13;;
10727;SDS011;5415;59.322;18.246;2022-07-03T03:45:15;4.70;;;3.60;;
10727;SDS011;5415;59.322;18.246;2022-07-03T03:47:42;7.43;;;3.23;;
10727;SDS011;5415;59.322;18.246;2022-07-03T03:50:12;8.03;;;3.60;;
10727;SDS011;5415;59.322;18.246;2022-07-03T03:52:39;5.00;;;3.47;;
10727;SDS011;5415;59.322;18.246;2022-07-03T03:55:06;6.60;;;3.50;;
10727;SDS011;5415;59.322;18.246;2022-07-03T03:57:35;3.37;;;3.00;;
10727;SDS011;5415;59.322;18.246;2022-07-03T04:00:03;4.33;;;2.80;;
10727;SDS011;5415;59.322;18.246;2022-07-03T04:02:30;3.30;;;3.00;;
10727;SDS011;5415;59.322;18.246;2022-07-03T04:04:58;3.27;;;2.67;;
10727;SDS011;5415;59.322;18.246;2022-07-03T04:07:27;4.20;;;3.00;;
10727;SDS011;5415;59.322;18.246;2022-07-03T04:09:54;3.97;;;2.77;;
10727;SDS011;5415;59.322;18.246;2022-07-03T04:12:22;4.70;;;3.00;;
10727;SDS011;5415;59.322;18.246;2022-07-03T04:14:52;6.03;;;3.10;;
10727;SDS011;5415;59.322;18.246;2022-07-03T04:17:20;4.17;;;2.90;;
10727;SDS011;5415;59.322;18.246;2022-07-03T04:19:47;6.77;;;3.37;;
10727;SDS011;5415;59.322;18.246;2022-07-03T04:22:15;3.13;;;2.50;;
10727;SDS011;5415;59.322;18.246;2022-07-03T04:24:45;4.57;;;2.57;;
10727;SDS011;5415;59.322;18.246;2022-07-03T04:27:12;3.40;;;2.70;;
10727;SDS011;5415;59.322;18.246;2022-07-03T04:29:39;4.83;;;2.60;;
10727;SDS011;5415;59.322;18.246;2022-07-03T04:32:07;5.80;;;2.70;;
10727;SDS011;5415;59.322;18.246;2022-07-03T04:34:35;5.47;;;2.70;;
10727;SDS011;5415;59.322;18.246;2022-07-03T04:37:03;5.13;;;2.60;;
10727;SDS011;5415;59.322;18.246;2022-07-03T04:39:32;5.47;;;2.50;;
10727;SDS011;5415;59.322;18.246;2022-07-03T04:42:01;2.63;;;2.20;;
10727;SDS011;5415;59.322;18.246;2022-07-03T04:44:30;3.63;;;2.17;;
10727;SDS011;5415;59.322;18.246;2022-07-03T04:46:58;2.53;;;2.10;;
10727;SDS011;5415;59.322;18.246;2022-07-03T04:49:25;5.67;;;2.10;;
10727;SDS011;5415;59.322;18.246;2022-07-03T04:51:53;6.13;;;2.73;;
10727;SDS011;5415;59.322;18.246;2022-07-03T04:54:21;4.60;;;2.43;;
10727;SDS011;5415;59.322;18.246;2022-07-03T04:56:49;3.00;;;2.13;;
10727;SDS011;5415;59.322;18.246;2022-07-03T04:59:19;3.00;;;2.00;;
10727;SDS011;5415;59.322;18.246;2022-07-03T05:01:46;4.80;;;2.10;;
10727;SDS011;5415;59.322;18.246;2022-07-03T05:04:14;3.20;;;1.97;;
10727;SDS011;5415;59.322;18.246;2022-07-03T05:06:42;4.27;;;2.10;;
10727;SDS011;5415;59.322;18.246;2022-07-03T05:09:09;4.67;;;1.90;;
10727;SDS011;5415;59.322;18.246;2022-07-03T05:11:37;5.07;;;1.90;;
10727;SDS011;5415;59.322;18.246;2022-07-03T05:14:04;4.97;;;1.90;;
10727;SDS011;5415;59.322;18.246;2022-07-03T05:16:34;2.57;;;1.60;;
10727;SDS011;5415;59.322;18.246;2022-07-03T05:19:02;4.23;;;2.03;;
10727;SDS011;5415;59.322;18.246;2022-07-03T05:21:30;3.10;;;1.73;;
10727;SDS011;5415;59.322;18.246;2022-07-03T05:23:58;3.80;;;1.80;;
10727;SDS011;5415;59.322;18.246;2022-07-03T05:26:25;3.50;;;1.83;;
10727;SDS011;5415;59.322;18.246;2022-07-03T05:28:52;3.70;;;2.10;;
10727;SDS011;5415;59.322;18.246;2022-07-03T05:31:20;4.33;;;1.73;;
10727;SDS011;5415;59.322;18.246;2022-07-03T05:33:49;4.17;;;2.03;;
10727;SDS011;5415;59.322;18.246;2022-07-03T05:36:16;4.87;;;1.87;;
10727;SDS011;5415;59.322;18.246;2022-07-03T05:38:44;3.27;;;1.80;;
10727;SDS011;5415;59.322;18.246;2022-07-03T05:41:30;2.83;;;1.63;;
10727;SDS011;5415;59.322;18.246;2022-07-03T05:43:57;4.00;;;1.70;;
10727;SDS011;5415;59.322;18.246;2022-07-03T05:46:25;3.90;;;1.67;;
10727;SDS011;5415;59.322;18.246;2022-07-03T05:48:54;3.67;;;1.90;;
10727;SDS011;5415;59.322;18.246;2022-07-03T05:51:21;3.97;;;1.60;;
10727;SDS011;5415;59.322;18.246;2022-07-03T05:53:48;2.97;;;1.73;;
10727;SDS011;5415;59.322;18.246;2022-07-03T05:56:16;4.33;;;1.80;;
10727;SDS011;5415;59.322;18.246;2022-07-03T05:58:44;4.07;;;1.83;;
10727;SDS011;5415;59.322;18.246;2022-07-03T06:01:11;3.37;;;1.50;;
10727;SDS011;5415;59.322;18.246;2022-07-03T06:03:39;1.90;;;1.50;;
10727;SDS011;5415;59.322;18.246;2022-07-03T06:06:08;4.63;;;1.87;;
10727;SDS011;5415;59.322;18.246;2022-07-03T06:08:35;2.83;;;1.60;;
10727;SDS011;5415;59.322;18.246;2022-07-03T06:11:03;2.63;;;1.70;;
10727;SDS011;5415;59.322;18.246;2022-07-03T06:13:30;2.93;;;1.60;;
10727;SDS011;5415;59.322;18.246;2022-07-03T06:15:58;4.93;;;1.80;;
10727;SDS011;5415;59.322;18.246;2022-07-03T06:18:25;4.93;;;1.93;;
10727;SDS011;5415;59.322;18.246;2022-07-03T06:20:54;3.50;;;1.70;;
10727;SDS011;5415;59.322;18.246;2022-07-03T06:23:24;2.67;;;1.70;;
10727;SDS011;5415;59.322;18.246;2022-07-03T06:25:52;4.13;;;1.50;;
10727;SDS011;5415;59.322;18.246;2022-07-03T06:28:20;4.70;;;1.33;;
10727;SDS011;5415;59.322;18.246;2022-07-03T06:30:48;3.57;;;1.70;;
10727;SDS011;5415;59.322;18.246;2022-07-03T06:33:15;3.43;;;1.60;;
10727;SDS011;5415;59.322;18.246;2022-07-03T06:35:42;1.40;;;1.30;;
10727;SDS011;5415;59.322;18.246;2022-07-03T06:38:10;3.07;;;1.50;;
10727;SDS011;5415;59.322;18.246;2022-07-03T06:40:39;5.77;;;1.77;;
10727;SDS011;5415;59.322;18.246;2022-07-03T06:43:07;2.80;;;1.53;;
10727;SDS011;5415;59.322;18.246;2022-07-03T06:45:34;1.90;;;1.30;;
10727;SDS011;5415;59.322;18.246;2022-07-03T06:48:02;4.20;;;1.30;;
10727;SDS011;5415;59.322;18.246;2022-07-03T06:50:29;2.83;;;1.20;;
10727;SDS011;5415;59.322;18.246;2022-07-03T06:52:57;1.97;;;1.23;;
10727;SDS011;5415;59.322;18.246;2022-07-03T06:55:25;3.70;;;1.27;;
10727;SDS011;5415;59.322;18.246;2022-07-03T06:57:54;4.03;;;1.40;;
10727;SDS011;5415;59.322;18.246;2022-07-03T07:00:22;2.67;;;1.10;;
10727;SDS011;5415;59.322;18.246;2022-07-03T07:02:50;2.17;;;1.20;;
10727;SDS011;5415;59.322;18.246;2022-07-03T07:05:20;2.17;;;1.20;;
10727;SDS011;5415;59.322;18.246;2022-07-03T07:07:47;3.73;;;1.30;;
10727;SDS011;5415;59.322;18.246;2022-07-03T07:10:15;2.20;;;1.37;;
10727;SDS011;5415;59.322;18.246;2022-07-03T07:12:42;3.67;;;0.97;;
10727;SDS011;5415;59.322;18.246;2022-07-03T07:15:11;4.67;;;1.10;;
10727;SDS011;5415;59.322;18.246;2022-07-03T07:17:39;3.07;;;1.20;;
10727;SDS011;5415;59.322;18.246;2022-07-03T07:20:08;3.17;;;1.10;;
10727;SDS011;5415;59.322;18.246;2022-07-03T07:22:37;5.30;;;1.20;;
10727;SDS011;5415;59.322;18.246;2022-07-03T07:25:04;1.23;;;0.90;;
10727;SDS011;5415;59.322;18.246;2022-07-03T07:27:32;4.47;;;1.17;;
10727;SDS011;5415;59.322;18.246;2022-07-03T07:30:00;2.77;;;1.00;;
10727;SDS011;5415;59.322;18.246;2022-07-03T07:32:29;2.20;;;1.00;;
10727;SDS011;5415;59.322;18.246;2022-07-03T07:34:56;2.57;;;1.23;;
10727;SDS011;5415;59.322;18.246;2022-07-03T07:37:23;3.10;;;1.20;;
10727;SDS011;5415;59.322;18.246;2022-07-03T07:39:51;2.27;;;1.20;;
10727;SDS011;5415;59.322;18.246;2022-07-03T07:42:18;3.50;;;1.00;;
10727;SDS011;5415;59.322;18.246;2022-07-03T07:44:46;1.83;;;1.10;;
10727;SDS011;5415;59.322;18.246;2022-07-03T07:47:13;2.87;;;1.10;;
10727;SDS011;5415;59.322;18.246;2022-07-03T07:49:42;2.50;;;1.10;;
10727;SDS011;5415;59.322;18.246;2022-07-03T07:52:10;1.93;;;1.03;;
10727;SDS011;5415;59.322;18.246;2022-07-03T07:54:37;3.80;;;1.00;;
10727;SDS011;5415;59.322;18.246;2022-07-03T07:57:04;1.80;;;1.10;;
10727;SDS011;5415;59.322;18.246;2022-07-03T07:59:33;2.60;;;1.00;;
10727;SDS011;5415;59.322;18.246;2022-07-03T08:02:00;3.17;;;1.10;;
10727;SDS011;5415;59.322;18.246;2022-07-03T08:04:46;3.77;;;0.93;;
10727;SDS011;5415;59.322;18.246;2022-07-03T08:07:31;1.60;;;1.03;;
10727;SDS011;5415;59.322;18.246;2022-07-03T08:09:59;2.43;;;1.00;;
10727;SDS011;5415;59.322;18.246;2022-07-03T08:12:28;4.90;;;1.33;;
10727;SDS011;5415;59.322;18.246;2022-07-03T08:14:55;4.40;;;1.10;;
10727;SDS011;5415;59.322;18.246;2022-07-03T08:17:23;3.80;;;1.17;;
10727;SDS011;5415;59.322;18.246;2022-07-03T08:19:52;3.60;;;1.23;;
10727;SDS011;5415;59.322;18.246;2022-07-03T08:22:19;2.80;;;1.00;;
10727;SDS011;5415;59.322;18.246;2022-07-03T08:24:47;3.57;;;1.00;;
10727;SDS011;5415;59.322;18.246;2022-07-03T08:27:14;1.43;;;0.97;;
10727;SDS011;5415;59.322;18.246;2022-07-03T08:29:42;1.83;;;0.97;;
10727;SDS011;5415;59.322;18.246;2022-07-03T08:32:11;6.13;;;1.40;;
10727;SDS011;5415;59.322;18.246;2022-07-03T08:34:38;1.47;;;1.00;;
10727;SDS011;5415;59.322;18.246;2022-07-03T08:37:07;1.20;;;0.80;;
10727;SDS011;5415;59.322;18.246;2022-07-03T08:39:35;1.40;;;1.00;;
10727;SDS011;5415;59.322;18.246;2022-07-03T08:42:02;3.20;;;1.37;;
10727;SDS011;5415;59.322;18.246;2022-07-03T08:44:32;2.70;;;1.13;;
10727;SDS011;5415;59.322;18.246;2022-07-03T08:47:02;1.70;;;1.10;;
10727;SDS011;5415;59.322;18.246;2022-07-03T08:49:30;2.57;;;1.10;;
10727;SDS011;5415;59.322;18.246;2022-07-03T08:51:58;4.17;;;0.90;;
10727;SDS011;5415;59.322;18.246;2022-07-03T08:54:28;2.53;;;1.03;;
10727;SDS011;5415;59.322;18.246;2022-07-03T08:56:56;2.47;;;0.97;;
10727;SDS011;5415;59.322;18.246;2022-07-03T08:59:24;2.50;;;1.30;;
10727;SDS011;5415;59.322;18.246;2022-07-03T09:01:55;2.93;;;1.00;;
10727;SDS011;5415;59.322;18.246;2022-07-03T09:04:23;4.57;;;1.20;;
10727;SDS011;5415;59.322;18.246;2022-07-03T09:06:50;1.40;;;1.00;;
10727;SDS011;5415;59.322;18.246;2022-07-03T09:09:18;3.07;;;1.00;;
10727;SDS011;5415;59.322;18.246;2022-07-03T09:11:48;3.70;;;1.20;;
10727;SDS011;5415;59.322;18.246;2022-07-03T09:14:16;3.43;;;1.03;;
10727;SDS011;5415;59.322;18.246;2022-07-03T09:16:43;3.03;;;1.37;;
10727;SDS011;5415;59.322;18.246;2022-07-03T09:19:11;2.80;;;1.10;;
10727;SDS011;5415;59.322;18.246;2022-07-03T09:21:39;1.47;;;0.90;;
10727;SDS011;5415;59.322;18.246;2022-07-03T09:24:08;1.23;;;0.90;;
10727;SDS011;5415;59.322;18.246;2022-07-03T09:26:35;3.03;;;1.27;;
10727;SDS011;5415;59.322;18.246;2022-07-03T09:29:05;2.83;;;1.20;;
10727;SDS011;5415;59.322;18.246;2022-07-03T09:31:34;3.63;;;1.03;;
10727;SDS011;5415;59.322;18.246;2022-07-03T09:34:02;8.03;;;1.33;;
10727;SDS011;5415;59.322;18.246;2022-07-03T09:36:39;4.20;;;1.20;;
10727;SDS011;5415;59.322;18.246;2022-07-03T09:41:58;1.80;;;1.00;;
10727;SDS011;5415;59.322;18.246;2022-07-03T09:44:37;2.53;;;1.03;;
10727;SDS011;5415;59.322;18.246;2022-07-03T09:47:06;1.50;;;0.93;;
10727;SDS011;5415;59.322;18.246;2022-07-03T09:49:44;1.53;;;1.10;;
10727;SDS011;5415;59.322;18.246;2022-07-03T09:52:25;1.47;;;0.90;;
10727;SDS011;5415;59.322;18.246;2022-07-03T09:54:53;1.00;;;0.80;;
10727;SDS011;5415;59.322;18.246;2022-07-03T09:57:21;2.93;;;0.97;;
10727;SDS011;5415;59.322;18.246;2022-07-03T09:59:54;2.23;;;1.10;;
10727;SDS011;5415;59.322;18.246;2022-07-03T10:02:36;2.60;;;1.10;;
10727;SDS011;5415;59.322;18.246;2022-07-03T10:05:13;2.00;;;0.90;;
10727;SDS011;5415;59.322;18.246;2022-07-03T10:07:49;1.87;;;1.10;;
10727;SDS011;5415;59.322;18.246;2022-07-03T10:10:17;1.13;;;0.90;;
10727;SDS011;5415;59.322;18.246;2022-07-03T10:12:46;3.20;;;1.10;;
10727;SDS011;5415;59.322;18.246;2022-07-03T10:15:16;1.77;;;1.00;;
10727;SDS011;5415;59.322;18.246;2022-07-03T10:17:46;1.47;;;0.90;;
10727;SDS011;5415;59.322;18.246;2022-07-03T10:20:14;1.43;;;0.90;;
10727;SDS011;5415;59.322;18.246;2022-07-03T10:22:42;3.20;;;1.20;;
10727;SDS011;5415;59.322;18.246;2022-07-03T10:25:12;2.53;;;0.90;;
10727;SDS011;5415;59.322;18.246;2022-07-03T10:27:40;1.23;;;0.87;;
10727;SDS011;5415;59.322;18.246;2022-07-03T10:30:09;2.87;;;1.00;;
10727;SDS011;5415;59.322;18.246;2022-07-03T10:32:38;3.17;;;1.10;;
10727;SDS011;5415;59.322;18.246;2022-07-03T10:35:06;1.63;;;1.00;;
10727;SDS011;5415;59.322;18.246;2022-07-03T10:37:37;2.50;;;1.30;;
10727;SDS011;5415;59.322;18.246;2022-07-03T10:40:06;1.87;;;1.00;;
10727;SDS011;5415;59.322;18.246;2022-07-03T10:42:48;2.07;;;0.90;;
10727;SDS011;5415;59.322;18.246;2022-07-03T10:45:36;1.37;;;0.90;;
10727;SDS011;5415;59.322;18.246;2022-07-03T10:48:06;2.80;;;1.00;;
10727;SDS011;5415;59.322;18.246;2022-07-03T10:50:33;3.20;;;1.23;;
10727;SDS011;5415;59.322;18.246;2022-07-03T10:55:51;2.63;;;1.00;;
10727;SDS011;5415;59.322;18.246;2022-07-03T10:58:29;2.57;;;1.13;;
10727;SDS011;5415;59.322;18.246;2022-07-03T11:00:56;1.30;;;0.70;;
10727;SDS011;5415;59.322;18.246;2022-07-03T11:06:12;1.70;;;0.97;;
10727;SDS011;5415;59.322;18.246;2022-07-03T11:11:34;1.57;;;0.90;;
10727;SDS011;5415;59.322;18.246;2022-07-03T11:14:22;2.40;;;0.93;;
10727;SDS011;5415;59.322;18.246;2022-07-03T11:19:35;0.87;;;0.80;;
10727;SDS011;5415;59.322;18.246;2022-07-03T11:22:05;0.97;;;0.87;;
10727;SDS011;5415;59.322;18.246;2022-07-03T11:24:37;1.30;;;0.87;;
10727;SDS011;5415;59.322;18.246;2022-07-03T11:27:12;1.50;;;1.10;;
10727;SDS011;5415;59.322;18.246;2022-07-03T11:29:41;1.83;;;1.00;;
10727;SDS011;5415;59.322;18.246;2022-07-03T11:34:54;2.80;;;1.03;;
10727;SDS011;5415;59.322;18.246;2022-07-03T11:37:24;1.90;;;0.90;;
10727;SDS011;5415;59.322;18.246;2022-07-03T11:39:51;1.40;;;1.00;;
10727;SDS011;5415;59.322;18.246;2022-07-03T11:42:21;0.90;;;0.70;;
10727;SDS011;5415;59.322;18.246;2022-07-03T11:44:50;1.40;;;0.90;;
10727;SDS011;5415;59.322;18.246;2022-07-03T11:47:18;1.63;;;0.83;;
10727;SDS011;5415;59.322;18.246;2022-07-03T11:49:47;6.00;;;0.90;;
10727;SDS011;5415;59.322;18.246;2022-07-03T11:52:30;2.63;;;0.80;;
10727;SDS011;5415;59.322;18.246;2022-07-03T11:55:00;0.73;;;0.73;;
10727;SDS011;5415;59.322;18.246;2022-07-03T11:57:27;1.10;;;0.90;;
10727;SDS011;5415;59.322;18.246;2022-07-03T12:00:03;3.80;;;0.97;;
10727;SDS011;5415;59.322;18.246;2022-07-03T12:02:30;1.20;;;0.90;;
10727;SDS011;5415;59.322;18.246;2022-07-03T12:04:57;2.30;;;0.70;;
10727;SDS011;5415;59.322;18.246;2022-07-03T12:07:25;1.47;;;0.80;;
10727;SDS011;5415;59.322;18.246;2022-07-03T12:09:53;3.50;;;1.10;;
10727;SDS011;5415;59.322;18.246;2022-07-03T12:12:24;1.30;;;1.00;;
10727;SDS011;5415;59.322;18.246;2022-07-03T12:14:55;1.83;;;0.80;;
10727;SDS011;5415;59.322;18.246;2022-07-03T12:17:23;3.03;;;0.90;;
10727;SDS011;5415;59.322;18.246;2022-07-03T12:19:51;0.77;;;0.77;;
10727;SDS011;5415;59.322;18.246;2022-07-03T12:22:23;1.73;;;0.93;;
10727;SDS011;5415;59.322;18.246;2022-07-03T12:24:57;2.30;;;0.80;;
10727;SDS011;5415;59.322;18.246;2022-07-03T12:27:27;1.20;;;1.07;;
10727;SDS011;5415;59.322;18.246;2022-07-03T12:29:55;2.67;;;0.90;;
10727;SDS011;5415;59.322;18.246;2022-07-03T12:32:23;2.50;;;1.13;;
10727;SDS011;5415;59.322;18.246;2022-07-03T12:34:50;1.63;;;1.10;;
10727;SDS011;5415;59.322;18.246;2022-07-03T12:37:19;3.77;;;1.07;;
10727;SDS011;5415;59.322;18.246;2022-07-03T12:39:58;1.90;;;1.30;;
10727;SDS011;5415;59.322;18.246;2022-07-03T12:42:27;1.70;;;1.27;;
10727;SDS011;5415;59.322;18.246;2022-07-03T12:44:55;1.07;;;0.97;;
10727;SDS011;5415;59.322;18.246;2022-07-03T12:47:23;1.83;;;0.90;;
10727;SDS011;5415;59.322;18.246;2022-07-03T12:49:55;0.97;;;0.83;;
10727;SDS011;5415;59.322;18.246;2022-07-03T12:52:23;1.57;;;0.87;;
10727;SDS011;5415;59.322;18.246;2022-07-03T12:54:51;3.53;;;1.10;;
10727;SDS011;5415;59.322;18.246;2022-07-03T12:57:18;2.53;;;1.40;;
10727;SDS011;5415;59.322;18.246;2022-07-03T13:00:16;1.93;;;1.17;;
10727;SDS011;5415;59.322;18.246;2022-07-03T13:02:46;1.83;;;1.00;;
10727;SDS011;5415;59.322;18.246;2022-07-03T13:05:14;1.40;;;1.07;;
10727;SDS011;5415;59.322;18.246;2022-07-03T13:07:41;1.17;;;0.90;;
10727;SDS011;5415;59.322;18.246;2022-07-03T13:10:09;0.97;;;0.90;;
10727;SDS011;5415;59.322;18.246;2022-07-03T13:12:44;1.97;;;1.07;;
10727;SDS011;5415;59.322;18.246;2022-07-03T13:15:12;2.83;;;1.20;;
10727;SDS011;5415;59.322;18.246;2022-07-03T13:18:00;2.57;;;1.13;;
10727;SDS011;5415;59.322;18.246;2022-07-03T13:20:28;1.93;;;1.10;;
10727;SDS011;5415;59.322;18.246;2022-07-03T13:22:56;1.87;;;0.93;;
10727;SDS011;5415;59.322;18.246;2022-07-03T13:25:24;1.13;;;0.93;;
10727;SDS011;5415;59.322;18.246;2022-07-03T13:27:51;2.07;;;1.07;;
10727;SDS011;5415;59.322;18.246;2022-07-03T13:30:19;2.70;;;1.20;;
10727;SDS011;5415;59.322;18.246;2022-07-03T13:32:47;1.23;;;1.10;;
10727;SDS011;5415;59.322;18.246;2022-07-03T13:35:16;1.73;;;1.20;;
10727;SDS011;5415;59.322;18.246;2022-07-03T13:37:44;1.67;;;1.00;;
10727;SDS011;5415;59.322;18.246;2022-07-03T13:40:12;0.90;;;0.90;;
10727;SDS011;5415;59.322;18.246;2022-07-03T13:42:40;1.33;;;1.17;;
10727;SDS011;5415;59.322;18.246;2022-07-03T13:45:08;1.20;;;1.00;;
10727;SDS011;5415;59.322;18.246;2022-07-03T13:47:35;1.73;;;1.30;;
10727;SDS011;5415;59.322;18.246;2022-07-03T13:50:03;2.17;;;1.30;;
10727;SDS011;5415;59.322;18.246;2022-07-03T13:52:32;3.37;;;1.00;;
10727;SDS011;5415;59.322;18.246;2022-07-03T13:55:01;1.60;;;1.00;;
10727;SDS011;5415;59.322;18.246;2022-07-03T13:57:30;2.07;;;1.10;;
10727;SDS011;5415;59.322;18.246;2022-07-03T13:59:58;2.70;;;1.27;;
10727;SDS011;5415;59.322;18.246;2022-07-03T14:02:25;2.03;;;1.30;;
10727;SDS011;5415;59.322;18.246;2022-07-03T14:04:52;3.37;;;1.30;;
10727;SDS011;5415;59.322;18.246;2022-07-03T14:07:20;1.73;;;1.37;;
10727;SDS011;5415;59.322;18.246;2022-07-03T14:09:49;1.30;;;1.20;;
10727;SDS011;5415;59.322;18.246;2022-07-03T14:12:17;2.90;;;1.30;;
10727;SDS011;5415;59.322;18.246;2022-07-03T14:14:44;2.40;;;1.50;;
10727;SDS011;5415;59.322;18.246;2022-07-03T14:17:11;1.30;;;1.00;;
10727;SDS011;5415;59.322;18.246;2022-07-03T14:19:39;2.47;;;1.50;;
10727;SDS011;5415;59.322;18.246;2022-07-03T14:22:06;2.03;;;1.10;;
10727;SDS011;5415;59.322;18.246;2022-07-03T14:24:34;2.00;;;1.20;;
10727;SDS011;5415;59.322;18.246;2022-07-03T14:27:04;2.10;;;1.30;;
10727;SDS011;5415;59.322;18.246;2022-07-03T14:29:49;3.40;;;1.40;;
10727;SDS011;5415;59.322;18.246;2022-07-03T14:32:34;2.50;;;1.30;;
10727;SDS011;5415;59.322;18.246;2022-07-03T14:35:02;4.13;;;1.70;;
10727;SDS011;5415;59.322;18.246;2022-07-03T14:37:30;2.57;;;1.50;;
10727;SDS011;5415;59.322;18.246;2022-07-03T14:39:58;1.57;;;1.40;;
10727;SDS011;5415;59.322;18.246;2022-07-03T14:42:28;4.83;;;2.50;;
10727;SDS011;5415;59.322;18.246;2022-07-03T14:44:55;9.53;;;4.10;;
10727;SDS011;5415;59.322;18.246;2022-07-03T14:47:23;7.67;;;3.27;;
10727;SDS011;5415;59.322;18.246;2022-07-03T14:49:50;2.77;;;1.67;;
10727;SDS011;5415;59.322;18.246;2022-07-03T14:52:18;1.63;;;1.27;;
10727;SDS011;5415;59.322;18.246;2022-07-03T14:54:45;1.20;;;1.10;;
10727;SDS011;5415;59.322;18.246;2022-07-03T14:57:24;0.93;;;0.90;;
10727;SDS011;5415;59.322;18.246;2022-07-03T15:00:00;1.10;;;0.90;;
10727;SDS011;5415;59.322;18.246;2022-07-03T15:02:32;1.67;;;1.10;;
10727;SDS011;5415;59.322;18.246;2022-07-03T15:05:04;1.10;;;1.00;;
10727;SDS011;5415;59.322;18.246;2022-07-03T15:07:34;3.80;;;0.97;;
10727;SDS011;5415;59.322;18.246;2022-07-03T15:10:04;3.20;;;1.23;;
10727;SDS011;5415;59.322;18.246;2022-07-03T15:12:32;2.13;;;1.10;;
10727;SDS011;5415;59.322;18.246;2022-07-03T15:15:02;1.43;;;1.10;;
10727;SDS011;5415;59.322;18.246;2022-07-03T15:17:30;3.70;;;1.20;;
10727;SDS011;5415;59.322;18.246;2022-07-03T15:20:00;3.50;;;1.33;;
10727;SDS011;5415;59.322;18.246;2022-07-03T15:22:29;2.00;;;1.17;;